createdAt,value
2018-12-23T00:00:48.018Z,1016.53
2018-12-23T00:01:48.006Z,1016.53
2018-12-23T00:02:47.995Z,1016.51
2018-12-23T00:03:47.983Z,1016.49
2018-12-23T00:04:47.976Z,1016.50
2018-12-23T00:05:47.969Z,1016.49
2018-12-23T00:06:47.958Z,1016.49
2018-12-23T00:07:47.949Z,1016.48
2018-12-23T00:08:47.940Z,1016.51
2018-12-23T00:09:47.929Z,1016.45
2018-12-23T00:10:47.918Z,1016.50
2018-12-23T00:11:47.905Z,1016.51
2018-12-23T00:12:47.895Z,1016.54
2018-12-23T00:13:47.891Z,1016.52
2018-12-23T00:14:47.883Z,1016.47
2018-12-23T00:15:47.867Z,1016.49
2018-12-23T00:16:47.858Z,1016.53
2018-12-23T00:17:47.854Z,1016.48
2018-12-23T00:18:47.841Z,1016.51
2018-12-23T00:19:47.833Z,1016.45
2018-12-23T00:20:47.826Z,1016.52
2018-12-23T00:21:47.809Z,1016.56
2018-12-23T00:22:47.798Z,1016.59
2018-12-23T00:23:47.788Z,1016.64
2018-12-23T00:24:47.780Z,1016.58
2018-12-23T00:25:47.775Z,1016.55
2018-12-23T00:26:47.764Z,1016.55
2018-12-23T00:27:47.753Z,1016.61
2018-12-23T00:28:47.744Z,1016.60
2018-12-23T00:29:47.729Z,1016.63
2018-12-23T00:30:47.719Z,1016.62
2018-12-23T00:31:47.714Z,1016.67
2018-12-23T00:32:47.705Z,1016.60
2018-12-23T00:33:47.691Z,1016.66
2018-12-23T00:34:47.680Z,1016.59
2018-12-23T00:35:47.672Z,1016.57
2018-12-23T00:36:47.662Z,1016.59
2018-12-23T00:37:47.657Z,1016.61
2018-12-23T00:38:47.651Z,1016.60
2018-12-23T00:39:47.640Z,1016.55
2018-12-23T00:40:47.628Z,1016.61
2018-12-23T00:41:47.614Z,1016.57
2018-12-23T00:42:47.604Z,1016.50
2018-12-23T00:43:47.593Z,1016.47
2018-12-23T00:44:47.584Z,1016.52
2018-12-23T00:45:47.579Z,1016.52
2018-12-23T00:46:47.569Z,1016.51
2018-12-23T00:47:47.554Z,1016.57
2018-12-23T00:48:47.546Z,1016.54
2018-12-23T00:49:47.540Z,1016.54
2018-12-23T00:50:47.529Z,1016.59
2018-12-23T00:51:47.521Z,1016.60
2018-12-23T00:52:47.512Z,1016.62
2018-12-23T00:53:47.497Z,1016.63
2018-12-23T00:54:47.486Z,1016.65
2018-12-23T00:55:47.477Z,1016.67
2018-12-23T00:56:47.468Z,1016.63
2018-12-23T00:57:47.463Z,1016.66
2018-12-23T00:58:47.452Z,1016.61
2018-12-23T00:59:47.445Z,1016.63
2018-12-23T01:00:47.433Z,1016.55
2018-12-23T01:01:47.420Z,1016.57
2018-12-23T01:02:47.409Z,1016.52
2018-12-23T01:03:47.405Z,1016.55
2018-12-23T01:04:47.396Z,1016.60
2018-12-23T01:05:47.382Z,1016.58
2018-12-23T01:06:47.372Z,1016.67
2018-12-23T01:07:47.360Z,1016.72
2018-12-23T01:08:47.352Z,1016.73
2018-12-23T01:09:47.347Z,1016.74
2018-12-23T01:10:47.338Z,1016.75
2018-12-23T01:11:47.326Z,1016.82
2018-12-23T01:12:47.317Z,1016.78
2018-12-23T01:13:47.304Z,1016.78
2018-12-23T01:14:47.292Z,1016.71
2018-12-23T01:15:47.283Z,1016.79
2018-12-23T01:16:47.275Z,1016.80
2018-12-23T01:17:47.271Z,1016.84
2018-12-23T01:18:47.259Z,1016.85
2018-12-23T01:19:47.245Z,1016.81
2018-12-23T01:20:47.234Z,1016.82
2018-12-23T01:21:47.231Z,1016.80
2018-12-23T01:22:47.219Z,1016.81
2018-12-23T01:23:47.208Z,1016.78
2018-12-23T01:24:47.201Z,1016.71
2018-12-23T01:25:47.185Z,1016.73
2018-12-23T01:26:47.174Z,1016.70
2018-12-23T01:27:47.165Z,1016.68
2018-12-23T01:28:47.155Z,1016.71
2018-12-23T01:29:47.150Z,1016.75
2018-12-23T01:30:47.138Z,1016.71
2018-12-23T01:31:47.129Z,1016.71
2018-12-23T01:32:47.120Z,1016.73
2018-12-23T01:33:47.106Z,1016.70
2018-12-23T01:34:47.096Z,1016.72
2018-12-23T01:35:47.090Z,1016.73
2018-12-23T01:36:47.082Z,1016.81
2018-12-23T01:37:47.066Z,1016.82
2018-12-23T01:38:47.055Z,1016.82
2018-12-23T01:39:47.044Z,1016.88
2018-12-23T01:40:47.034Z,1016.87
2018-12-23T01:41:47.029Z,1016.85
2018-12-23T01:42:47.020Z,1016.91
2018-12-23T01:43:47.008Z,1016.89
2018-12-23T01:44:46.999Z,1016.86
2018-12-23T01:45:46.986Z,1016.92
2018-12-23T01:46:46.974Z,1016.87
2018-12-23T01:47:46.964Z,1016.91
2018-12-23T01:48:46.954Z,1016.90
2018-12-23T01:49:46.950Z,1016.97
2018-12-23T01:50:46.940Z,1017.02
2018-12-23T01:51:46.928Z,1017.01
2018-12-23T01:52:46.914Z,1017.04
2018-12-23T01:53:46.908Z,1017.02
2018-12-23T01:54:46.899Z,1017.05
2018-12-23T01:55:46.886Z,1017.06
2018-12-23T01:56:46.877Z,1017.07
2018-12-23T01:57:46.863Z,1017.14
2018-12-23T01:58:46.851Z,1017.11
2018-12-23T01:59:46.844Z,1017.12
2018-12-23T02:00:46.832Z,1017.10
2018-12-23T02:01:46.830Z,1017.13
2018-12-23T02:02:46.833Z,1017.12
2018-12-23T02:03:46.806Z,1017.11
2018-12-23T02:04:46.795Z,1017.14
2018-12-23T02:05:46.783Z,1017.15
2018-12-23T02:06:46.770Z,1017.15
2018-12-23T02:07:46.764Z,1017.14
2018-12-23T02:08:46.754Z,1017.16
2018-12-23T02:09:46.739Z,1017.15
2018-12-23T02:10:46.728Z,1017.15
2018-12-23T02:11:46.718Z,1017.08
2018-12-23T02:12:46.709Z,1017.06
2018-12-23T02:13:46.706Z,1017.04
2018-12-23T02:14:46.693Z,1017.04
2018-12-23T02:15:46.685Z,1017.05
2018-12-23T02:16:46.674Z,1017.05
2018-12-23T02:17:46.658Z,1017.05
2018-12-23T02:18:46.648Z,1017.04
2018-12-23T02:19:46.637Z,1017.10
2018-12-23T02:20:46.626Z,1017.10
2018-12-23T02:21:46.621Z,1017.13
2018-12-23T02:22:46.610Z,1017.13
2018-12-23T02:23:46.596Z,1017.12
2018-12-23T02:24:46.590Z,1017.06
2018-12-23T02:25:46.580Z,1017.07
2018-12-23T02:26:46.569Z,1017.11
2018-12-23T02:27:46.564Z,1017.13
2018-12-23T02:28:46.550Z,1017.17
2018-12-23T02:29:46.560Z,1017.19
2018-12-23T02:30:46.524Z,1017.19
2018-12-23T02:31:46.520Z,1017.17
2018-12-23T02:32:46.505Z,1017.12
2018-12-23T02:33:46.500Z,1017.20
2018-12-23T02:34:46.489Z,1017.23
2018-12-23T02:35:55.279Z,1017.18
2018-12-23T02:36:46.469Z,1017.19
2018-12-23T02:37:46.455Z,1017.24
2018-12-23T02:38:46.442Z,1017.21
2018-12-23T02:39:46.441Z,1017.17
2018-12-23T02:40:46.426Z,1017.13
2018-12-23T02:41:46.414Z,1017.06
2018-12-23T02:42:46.401Z,1017.10
2018-12-23T02:43:46.392Z,1017.04
2018-12-23T02:44:46.382Z,1017.14
2018-12-23T02:45:46.376Z,1017.22
2018-12-23T02:46:46.365Z,1017.14
2018-12-23T02:47:46.355Z,1017.08
2018-12-23T02:48:46.353Z,1017.04
2018-12-23T02:49:46.333Z,1017.04
2018-12-23T02:50:46.323Z,1017.03
2018-12-23T02:51:46.309Z,1017.07
2018-12-23T02:52:46.304Z,1016.99
2018-12-23T02:53:46.294Z,1017.01
2018-12-23T02:54:46.282Z,1016.98
2018-12-23T02:55:46.270Z,1016.98
2018-12-23T02:56:46.259Z,1017.02
2018-12-23T02:57:46.256Z,1017.07
2018-12-23T02:58:46.242Z,1017.08
2018-12-23T02:59:46.235Z,1017.11
2018-12-23T03:00:46.225Z,1017.08
2018-12-23T03:01:46.209Z,1017.10
2018-12-23T03:02:46.199Z,1017.05
2018-12-23T03:03:46.187Z,1017.08
2018-12-23T03:04:46.178Z,1017.06
2018-12-23T03:05:46.177Z,1017.01
2018-12-23T03:06:46.269Z,1016.99
2018-12-23T03:07:46.153Z,1017.03
2018-12-23T03:08:46.151Z,1017.04
2018-12-23T03:09:46.128Z,1017.04
2018-12-23T03:10:46.118Z,1017.11
2018-12-23T03:11:46.112Z,1017.08
2018-12-23T03:12:46.103Z,1017.06
2018-12-23T03:13:46.093Z,1017.08
2018-12-23T03:14:46.183Z,1017.04
2018-12-23T03:15:46.067Z,1017.05
2018-12-23T03:16:46.058Z,1017.03
2018-12-23T03:17:46.057Z,1017.03
2018-12-23T03:18:46.041Z,1017.00
2018-12-23T03:19:46.031Z,1017.04
2018-12-23T03:20:46.023Z,1016.99
2018-12-23T03:21:46.009Z,1017.05
2018-12-23T03:22:45.996Z,1016.96
2018-12-23T03:23:45.987Z,1016.97
2018-12-23T03:24:45.978Z,1017.00
2018-12-23T03:25:45.972Z,1016.99
2018-12-23T03:26:45.961Z,1016.91
2018-12-23T03:27:45.946Z,1016.93
2018-12-23T03:28:45.937Z,1016.89
2018-12-23T03:29:45.932Z,1016.89
2018-12-23T03:30:45.923Z,1016.93
2018-12-23T03:31:45.915Z,1016.90
2018-12-23T03:32:45.903Z,1016.88
2018-12-23T03:33:45.887Z,1016.89
2018-12-23T03:34:45.877Z,1016.89
2018-12-23T03:35:45.867Z,1016.88
2018-12-23T03:36:45.855Z,1016.85
2018-12-23T03:37:45.858Z,1016.85
2018-12-23T03:38:45.841Z,1016.85
2018-12-23T03:39:45.832Z,1016.88
2018-12-23T03:40:45.822Z,1016.86
2018-12-23T03:41:45.806Z,1016.84
2018-12-23T03:42:45.795Z,1016.90
2018-12-23T03:43:45.791Z,1016.85
2018-12-23T03:44:45.790Z,1016.85
2018-12-23T03:45:45.770Z,1016.83
2018-12-23T03:46:45.762Z,1016.85
2018-12-23T03:47:45.747Z,1016.88
2018-12-23T03:48:45.736Z,1016.85
2018-12-23T03:49:45.730Z,1016.86
2018-12-23T03:50:45.719Z,1016.91
2018-12-23T03:51:45.716Z,1016.90
2018-12-23T03:52:45.700Z,1016.93
2018-12-23T03:53:45.685Z,1016.91
2018-12-23T03:54:45.674Z,1016.92
2018-12-23T03:55:45.663Z,1016.88
2018-12-23T03:56:45.653Z,1016.85
2018-12-23T03:57:45.650Z,1016.81
2018-12-23T03:58:45.640Z,1016.81
2018-12-23T03:59:45.624Z,1016.84
2018-12-23T04:00:45.612Z,1016.84
2018-12-23T04:01:45.609Z,1016.88
2018-12-23T04:02:45.597Z,1016.92
2018-12-23T04:03:45.586Z,1016.89
2018-12-23T04:04:45.579Z,1016.84
2018-12-23T04:05:45.562Z,1016.79
2018-12-23T04:06:45.552Z,1016.76
2018-12-23T04:07:45.541Z,1016.81
2018-12-23T04:08:45.531Z,1016.79
2018-12-23T04:09:45.525Z,1016.70
2018-12-23T04:10:45.514Z,1016.71
2018-12-23T04:11:45.507Z,1016.79
2018-12-23T04:12:45.495Z,1016.79
2018-12-23T04:13:45.480Z,1016.82
2018-12-23T04:14:45.470Z,1016.81
2018-12-23T04:15:45.464Z,1016.80
2018-12-23T04:16:45.455Z,1016.74
2018-12-23T04:17:45.438Z,1016.75
2018-12-23T04:18:45.428Z,1016.75
2018-12-23T04:19:45.417Z,1016.76
2018-12-23T04:20:45.407Z,1016.77
2018-12-23T04:21:45.401Z,1016.78
2018-12-23T04:22:45.391Z,1016.75
2018-12-23T04:23:45.382Z,1016.77
2018-12-23T04:24:45.369Z,1016.74
2018-12-23T04:25:45.355Z,1016.78
2018-12-23T04:26:45.344Z,1016.81
2018-12-23T04:27:45.335Z,1016.81
2018-12-23T04:28:45.325Z,1016.80
2018-12-23T04:29:45.321Z,1016.81
2018-12-23T04:30:45.309Z,1016.76
2018-12-23T04:31:45.293Z,1016.80
2018-12-23T04:32:45.285Z,1016.81
2018-12-23T04:33:45.280Z,1016.82
2018-12-23T04:34:45.271Z,1016.74
2018-12-23T04:35:45.257Z,1016.77
2018-12-23T04:36:45.246Z,1016.75
2018-12-23T04:37:45.232Z,1016.75
2018-12-23T04:38:45.222Z,1016.71
2018-12-23T04:39:45.212Z,1016.79
2018-12-23T04:40:45.202Z,1016.80
2018-12-23T04:41:45.194Z,1016.71
2018-12-23T04:42:45.184Z,1016.68
2018-12-23T04:43:45.177Z,1016.68
2018-12-23T04:44:45.167Z,1016.67
2018-12-23T04:45:45.151Z,1016.66
2018-12-23T04:46:45.139Z,1016.63
2018-12-23T04:47:45.143Z,1016.58
2018-12-23T04:48:45.124Z,1016.61
2018-12-23T04:49:45.109Z,1016.62
2018-12-23T04:50:45.100Z,1016.59
2018-12-23T04:51:45.088Z,1016.57
2018-12-23T04:52:45.078Z,1016.60
2018-12-23T04:53:45.072Z,1016.56
2018-12-23T04:54:45.065Z,1016.58
2018-12-23T04:55:45.052Z,1016.52
2018-12-23T04:56:45.041Z,1016.50
2018-12-23T04:57:45.027Z,1016.49
2018-12-23T04:58:45.019Z,1016.45
2018-12-23T04:59:45.006Z,1016.48
2018-12-23T05:00:44.997Z,1016.42
2018-12-23T05:01:44.991Z,1016.44
2018-12-23T05:02:44.981Z,1016.45
2018-12-23T05:03:44.966Z,1016.40
2018-12-23T05:04:44.955Z,1016.42
2018-12-23T05:05:44.951Z,1016.46
2018-12-23T05:06:44.944Z,1016.42
2018-12-23T05:07:44.930Z,1016.47
2018-12-23T05:08:44.920Z,1016.45
2018-12-23T05:09:44.904Z,1016.50
2018-12-23T05:10:44.893Z,1016.51
2018-12-23T05:11:44.884Z,1016.51
2018-12-23T05:12:44.875Z,1016.54
2018-12-23T05:13:44.872Z,1016.52
2018-12-23T05:14:44.939Z,1016.52
2018-12-23T05:15:44.848Z,1016.46
2018-12-23T05:16:44.839Z,1016.51
2018-12-23T05:17:44.823Z,1016.49
2018-12-23T05:18:44.811Z,1016.48
2018-12-23T05:19:44.808Z,1016.48
2018-12-23T05:20:44.798Z,1016.53
2018-12-23T05:21:44.782Z,1016.45
2018-12-23T05:22:44.772Z,1016.48
2018-12-23T05:23:44.766Z,1016.41
2018-12-23T05:24:44.757Z,1016.38
2018-12-23T05:25:44.746Z,1016.33
2018-12-23T05:26:44.736Z,1016.35
2018-12-23T05:27:44.728Z,1016.34
2018-12-23T05:28:44.716Z,1016.34
2018-12-23T05:29:44.701Z,1016.40
2018-12-23T05:30:44.690Z,1016.42
2018-12-23T05:31:44.680Z,1016.40
2018-12-23T05:32:44.672Z,1016.39
2018-12-23T05:33:44.668Z,1016.42
2018-12-23T05:34:44.655Z,1016.36
2018-12-23T05:35:44.640Z,1016.33
2018-12-23T05:36:52.376Z,1016.36
2018-12-23T05:37:44.730Z,1016.44
2018-12-23T05:38:44.615Z,1016.36
2018-12-23T05:39:44.605Z,1016.33
2018-12-23T05:40:44.599Z,1016.35
2018-12-23T05:41:44.594Z,1016.39
2018-12-23T05:42:44.571Z,1016.39
2018-12-23T05:43:44.560Z,1016.41
2018-12-23T05:44:44.551Z,1016.40
2018-12-23T05:45:44.546Z,1016.42
2018-12-23T05:46:44.534Z,1016.45
2018-12-23T05:47:44.525Z,1016.45
2018-12-23T05:48:44.515Z,1016.46
2018-12-23T05:49:44.500Z,1016.45
2018-12-23T05:50:44.490Z,1016.47
2018-12-23T05:51:44.484Z,1016.47
2018-12-23T05:52:44.475Z,1016.44
2018-12-23T05:53:44.460Z,1016.41
2018-12-23T05:54:44.451Z,1016.43
2018-12-23T05:55:44.440Z,1016.42
2018-12-23T05:56:44.430Z,1016.45
2018-12-23T05:57:44.427Z,1016.43
2018-12-23T05:58:44.414Z,1016.36
2018-12-23T05:59:44.405Z,1016.41
2018-12-23T06:00:44.396Z,1016.38
2018-12-23T06:01:44.381Z,1016.45
2018-12-23T06:02:44.370Z,1016.38
2018-12-23T06:03:44.367Z,1016.42
2018-12-23T06:04:44.350Z,1016.35
2018-12-23T06:05:44.453Z,1016.37
2018-12-23T06:06:44.336Z,1016.34
2018-12-23T06:07:44.320Z,1016.43
2018-12-23T06:08:44.311Z,1016.49
2018-12-23T06:09:44.307Z,1016.47
2018-12-23T06:10:44.295Z,1016.48
2018-12-23T06:11:44.286Z,1016.50
2018-12-23T06:12:44.277Z,1016.51
2018-12-23T06:13:44.262Z,1016.50
2018-12-23T06:14:44.251Z,1016.51
2018-12-23T06:15:44.242Z,1016.45
2018-12-23T06:16:44.231Z,1016.49
2018-12-23T06:17:44.226Z,1016.43
2018-12-23T06:18:44.217Z,1016.43
2018-12-23T06:19:44.206Z,1016.44
2018-12-23T06:20:44.200Z,1016.41
2018-12-23T06:21:44.184Z,1016.42
2018-12-23T06:22:44.172Z,1016.45
2018-12-23T06:23:44.169Z,1016.45
2018-12-23T06:24:44.159Z,1016.39
2018-12-23T06:25:44.144Z,1016.41
2018-12-23T06:26:44.132Z,1016.43
2018-12-23T06:27:44.123Z,1016.40
2018-12-23T06:28:45.324Z,1016.43
2018-12-23T06:29:44.108Z,1016.49
2018-12-23T06:30:44.098Z,1016.49
2018-12-23T06:31:44.088Z,1016.52
2018-12-23T06:32:44.079Z,1016.51
2018-12-23T06:33:44.065Z,1016.54
2018-12-23T06:34:44.054Z,1016.55
2018-12-23T06:35:44.048Z,1016.59
2018-12-23T06:36:44.036Z,1016.59
2018-12-23T06:37:44.035Z,1016.57
2018-12-23T06:38:44.021Z,1016.58
2018-12-23T06:39:44.006Z,1016.56
2018-12-23T06:40:43.998Z,1016.57
2018-12-23T06:41:43.992Z,1016.53
2018-12-23T06:42:43.982Z,1016.55
2018-12-23T06:43:43.971Z,1016.51
2018-12-23T06:44:43.964Z,1016.53
2018-12-23T06:45:43.949Z,1016.47
2018-12-23T06:46:43.938Z,1016.48
2018-12-23T06:47:43.928Z,1016.49
2018-12-23T06:48:43.919Z,1016.49
2018-12-23T06:49:43.914Z,1016.44
2018-12-23T06:50:43.904Z,1016.46
2018-12-23T06:51:43.894Z,1016.49
2018-12-23T06:52:43.886Z,1016.45
2018-12-23T06:53:43.874Z,1016.48
2018-12-23T06:54:43.860Z,1016.41
2018-12-23T06:55:43.857Z,1016.44
2018-12-23T06:56:43.847Z,1016.43
2018-12-23T06:57:43.832Z,1016.47
2018-12-23T06:58:43.822Z,1016.41
2018-12-23T06:59:43.813Z,1016.45
2018-12-23T07:00:43.803Z,1016.45
2018-12-23T07:01:43.798Z,1016.41
2018-12-23T07:02:43.788Z,1016.42
2018-12-23T07:03:43.780Z,1016.45
2018-12-23T07:04:43.769Z,1016.44
2018-12-23T07:05:43.760Z,1016.47
2018-12-23T07:06:43.744Z,1016.40
2018-12-23T07:07:43.736Z,1016.44
2018-12-23T07:08:43.727Z,1016.38
2018-12-23T07:09:43.724Z,1016.33
2018-12-23T07:10:43.712Z,1016.39
2018-12-23T07:11:43.697Z,1016.33
2018-12-23T07:12:43.688Z,1016.34
2018-12-23T07:13:43.684Z,1016.32
2018-12-23T07:14:43.692Z,1016.37
2018-12-23T07:15:43.663Z,1016.35
2018-12-23T07:16:43.653Z,1016.37
2018-12-23T07:17:43.647Z,1016.37
2018-12-23T07:18:43.630Z,1016.31
2018-12-23T07:19:43.620Z,1016.35
2018-12-23T07:20:43.611Z,1016.42
2018-12-23T07:21:43.609Z,1016.34
2018-12-23T07:22:43.595Z,1016.33
2018-12-23T07:23:43.588Z,1016.31
2018-12-23T07:24:43.576Z,1016.32
2018-12-23T07:25:43.563Z,1016.33
2018-12-23T07:26:43.752Z,1016.30
2018-12-23T07:27:43.623Z,1016.26
2018-12-23T07:28:43.539Z,1016.25
2018-12-23T07:29:43.524Z,1016.26
2018-12-23T07:30:43.515Z,1016.30
2018-12-23T07:31:43.505Z,1016.27
2018-12-23T07:32:43.495Z,1016.24
2018-12-23T07:33:43.490Z,1016.33
2018-12-23T07:34:43.480Z,1016.32
2018-12-23T07:35:43.471Z,1016.28
2018-12-23T07:36:49.501Z,1016.27
2018-12-23T07:37:43.450Z,1016.32
2018-12-23T07:38:43.439Z,1016.27
2018-12-23T07:39:43.428Z,1016.21
2018-12-23T07:40:43.419Z,1016.22
2018-12-23T07:41:43.412Z,1016.21
2018-12-23T07:42:43.402Z,1016.25
2018-12-23T07:43:43.390Z,1016.22
2018-12-23T07:44:43.379Z,1016.24
2018-12-23T07:45:43.374Z,1016.26
2018-12-23T07:46:43.363Z,1016.21
2018-12-23T07:47:43.355Z,1016.17
2018-12-23T07:48:43.346Z,1016.18
2018-12-23T07:49:43.331Z,1016.14
2018-12-23T07:50:43.320Z,1016.13
2018-12-23T07:51:43.311Z,1016.21
2018-12-23T07:52:43.302Z,1016.15
2018-12-23T07:53:43.297Z,1016.24
2018-12-23T07:54:43.287Z,1016.23
2018-12-23T07:55:43.276Z,1016.22
2018-12-23T07:56:43.267Z,1016.20
2018-12-23T07:57:43.254Z,1016.24
2018-12-23T07:58:43.245Z,1016.21
2018-12-23T07:59:43.238Z,1016.25
2018-12-23T08:00:43.230Z,1016.22
2018-12-23T08:01:43.216Z,1016.19
2018-12-23T08:02:43.204Z,1016.23
2018-12-23T08:03:43.196Z,1016.23
2018-12-23T08:04:43.186Z,1016.22
2018-12-23T08:05:43.182Z,1016.27
2018-12-23T08:06:43.172Z,1016.26
2018-12-23T08:07:43.162Z,1016.26
2018-12-23T08:08:43.152Z,1016.25
2018-12-23T08:09:43.139Z,1016.19
2018-12-23T08:10:43.131Z,1016.24
2018-12-23T08:11:43.117Z,1016.20
2018-12-23T08:12:43.110Z,1016.16
2018-12-23T08:13:43.105Z,1016.16
2018-12-23T08:14:43.093Z,1016.13
2018-12-23T08:15:43.079Z,1016.13
2018-12-23T08:16:43.069Z,1016.12
2018-12-23T08:17:43.066Z,1016.13
2018-12-23T08:18:43.056Z,1016.09
2018-12-23T08:19:43.047Z,1016.20
2018-12-23T08:20:43.037Z,1016.18
2018-12-23T08:21:43.025Z,1016.13
2018-12-23T08:22:43.012Z,1016.15
2018-12-23T08:23:43.003Z,1016.16
2018-12-23T08:24:42.993Z,1016.11
2018-12-23T08:25:42.988Z,1016.08
2018-12-23T08:26:42.979Z,1016.05
2018-12-23T08:27:42.969Z,1016.06
2018-12-23T08:28:42.960Z,1016.10
2018-12-23T08:29:42.947Z,1016.02
2018-12-23T08:30:42.937Z,1016.09
2018-12-23T08:31:42.932Z,1016.11
2018-12-23T08:32:42.922Z,1016.10
2018-12-23T08:33:42.916Z,1016.12
2018-12-23T08:34:42.902Z,1016.14
2018-12-23T08:35:42.891Z,1016.11
2018-12-23T08:36:42.879Z,1016.11
2018-12-23T08:37:44.743Z,1016.07
2018-12-23T08:38:42.864Z,1016.10
2018-12-23T08:39:42.855Z,1016.11
2018-12-23T08:40:42.845Z,1016.17
2018-12-23T08:41:42.832Z,1016.13
2018-12-23T08:42:42.821Z,1016.08
2018-12-23T08:43:42.815Z,1016.18
2018-12-23T08:44:42.804Z,1016.13
2018-12-23T08:45:42.800Z,1016.12
2018-12-23T08:46:42.790Z,1016.12
2018-12-23T08:47:42.776Z,1016.19
2018-12-23T08:48:42.766Z,1016.15
2018-12-23T08:49:42.762Z,1016.15
2018-12-23T08:50:42.752Z,1016.17
2018-12-23T08:51:42.743Z,1016.14
2018-12-23T08:52:42.739Z,1016.07
2018-12-23T08:53:42.720Z,1016.12
2018-12-23T08:54:42.709Z,1016.09
2018-12-23T08:55:42.700Z,1016.12
2018-12-23T08:56:42.691Z,1016.07
2018-12-23T08:57:42.778Z,1016.13
2018-12-23T08:58:42.677Z,1016.14
2018-12-23T08:59:42.669Z,1016.05
2018-12-23T09:00:42.659Z,1016.13
2018-12-23T09:01:42.645Z,1016.12
2018-12-23T09:02:42.636Z,1016.05
2018-12-23T09:03:42.631Z,1016.07
2018-12-23T09:04:42.624Z,1016.07
2018-12-23T09:05:42.608Z,1016.12
2018-12-23T09:06:42.598Z,1016.06
2018-12-23T09:07:42.589Z,1016.05
2018-12-23T09:08:42.581Z,1016.05
2018-12-23T09:09:42.575Z,1016.04
2018-12-23T09:10:42.635Z,1016.09
2018-12-23T09:11:43.046Z,1016.06
2018-12-23T09:12:42.549Z,1016.06
2018-12-23T09:13:42.534Z,1016.05
2018-12-23T09:14:42.525Z,1016.01
2018-12-23T09:15:42.516Z,1016.04
2018-12-23T09:16:42.507Z,1016.02
2018-12-23T09:17:42.504Z,1016.07
2018-12-23T09:18:42.492Z,1016.07
2018-12-23T09:19:42.480Z,1016.03
2018-12-23T09:20:42.472Z,1016.04
2018-12-23T09:21:42.467Z,1016.04
2018-12-23T09:22:42.461Z,1016.03
2018-12-23T09:23:42.447Z,1016.04
2018-12-23T09:24:42.437Z,1015.99
2018-12-23T09:25:42.424Z,1016.05
2018-12-23T09:26:42.415Z,1015.97
2018-12-23T09:27:42.410Z,1015.96
2018-12-23T09:28:42.399Z,1016.00
2018-12-23T09:29:42.394Z,1015.98
2018-12-23T09:30:42.385Z,1015.91
2018-12-23T09:31:42.374Z,1015.91
2018-12-23T09:32:42.366Z,1015.90
2018-12-23T09:33:42.352Z,1015.92
2018-12-23T09:34:42.342Z,1015.93
2018-12-23T09:35:42.345Z,1015.88
2018-12-23T09:36:42.330Z,1015.82
2018-12-23T09:37:42.316Z,1015.87
2018-12-23T09:38:42.307Z,1015.84
2018-12-23T09:39:42.298Z,1015.81
2018-12-23T09:40:42.288Z,1015.78
2018-12-23T09:41:42.285Z,1015.79
2018-12-23T09:42:42.276Z,1015.78
2018-12-23T09:43:42.268Z,1015.74
2018-12-23T09:44:42.261Z,1015.72
2018-12-23T09:45:42.244Z,1015.74
2018-12-23T09:46:42.235Z,1015.79
2018-12-23T09:47:42.226Z,1015.74
2018-12-23T09:48:42.217Z,1015.80
2018-12-23T09:49:42.213Z,1015.77
2018-12-23T09:50:42.203Z,1015.74
2018-12-23T09:51:42.192Z,1015.72
2018-12-23T09:52:42.182Z,1015.75
2018-12-23T09:53:42.177Z,1015.73
2018-12-23T09:54:42.167Z,1015.79
2018-12-23T09:55:42.160Z,1015.77
2018-12-23T09:56:42.152Z,1015.76
2018-12-23T09:57:42.138Z,1015.78
2018-12-23T09:58:42.128Z,1015.70
2018-12-23T09:59:42.120Z,1015.74
2018-12-23T10:00:42.111Z,1015.77
2018-12-23T10:01:42.107Z,1015.74
2018-12-23T10:02:42.099Z,1015.74
2018-12-23T10:03:42.090Z,1015.72
2018-12-23T10:04:42.081Z,1015.73
2018-12-23T10:05:42.068Z,1015.60
2018-12-23T10:06:42.058Z,1015.63
2018-12-23T10:07:42.055Z,1015.60
2018-12-23T10:08:42.045Z,1015.61
2018-12-23T10:09:42.035Z,1015.58
2018-12-23T10:10:42.023Z,1015.54
2018-12-23T10:11:42.015Z,1015.51
2018-12-23T10:12:42.007Z,1015.52
2018-12-23T10:13:42.005Z,1015.45
2018-12-23T10:14:41.996Z,1015.48
2018-12-23T10:15:41.984Z,1015.44
2018-12-23T10:16:41.979Z,1015.44
2018-12-23T10:17:41.964Z,1015.44
2018-12-23T10:18:41.953Z,1015.40
2018-12-23T10:19:41.945Z,1015.38
2018-12-23T10:20:41.936Z,1015.38
2018-12-23T10:21:41.992Z,1015.36
2018-12-23T10:22:41.923Z,1015.40
2018-12-23T10:23:41.910Z,1015.36
2018-12-23T10:24:41.901Z,1015.28
2018-12-23T10:25:41.897Z,1015.29
2018-12-23T10:26:41.887Z,1015.36
2018-12-23T10:27:41.880Z,1015.28
2018-12-23T10:28:41.873Z,1015.27
2018-12-23T10:29:41.861Z,1015.24
2018-12-23T10:30:41.849Z,1015.17
2018-12-23T10:31:41.841Z,1015.21
2018-12-23T10:32:41.833Z,1015.16
2018-12-23T10:33:41.827Z,1015.18
2018-12-23T10:34:41.820Z,1015.16
2018-12-23T10:35:41.810Z,1015.13
2018-12-23T10:36:41.802Z,1015.17
2018-12-23T10:37:41.788Z,1015.21
2018-12-23T10:38:41.780Z,1015.16
2018-12-23T10:39:41.775Z,1015.22
2018-12-23T10:40:41.766Z,1015.13
2018-12-23T10:41:41.752Z,1015.15
2018-12-23T10:42:41.743Z,1015.11
2018-12-23T10:43:41.735Z,1015.18
2018-12-23T10:44:41.726Z,1015.18
2018-12-23T10:45:41.722Z,1015.14
2018-12-23T10:46:41.712Z,1015.14
2018-12-23T10:47:41.749Z,1015.05
2018-12-23T10:48:41.817Z,1015.06
2018-12-23T10:49:41.683Z,1015.02
2018-12-23T10:50:41.673Z,1014.97
2018-12-23T10:51:41.666Z,1014.94
2018-12-23T10:52:41.657Z,1014.94
2018-12-23T10:53:41.653Z,1014.98
2018-12-23T10:54:41.643Z,1014.92
2018-12-23T10:55:41.630Z,1014.92
2018-12-23T10:56:41.622Z,1014.88
2018-12-23T10:57:41.618Z,1014.91
2018-12-23T10:58:41.608Z,1014.86
2018-12-23T10:59:41.598Z,1014.83
2018-12-23T11:00:41.590Z,1014.85
2018-12-23T11:01:41.579Z,1014.79
2018-12-23T11:02:41.569Z,1014.78
2018-12-23T11:03:41.558Z,1014.73
2018-12-23T11:04:41.550Z,1014.70
2018-12-23T11:05:41.547Z,1014.67
2018-12-23T11:06:41.536Z,1014.66
2018-12-23T11:07:41.529Z,1014.66
2018-12-23T11:08:41.523Z,1014.63
2018-12-23T11:09:41.505Z,1014.57
2018-12-23T11:10:41.496Z,1014.54
2018-12-23T11:11:41.496Z,1014.55
2018-12-23T11:12:41.483Z,1014.50
2018-12-23T11:13:41.471Z,1014.47
2018-12-23T11:14:41.461Z,1014.47
2018-12-23T11:15:41.451Z,1014.43
2018-12-23T11:16:41.443Z,1014.44
2018-12-23T11:17:41.439Z,1014.39
2018-12-23T11:18:41.430Z,1014.37
2018-12-23T11:19:41.421Z,1014.35
2018-12-23T11:20:41.420Z,1014.36
2018-12-23T11:21:41.400Z,1014.29
2018-12-23T11:22:41.388Z,1014.35
2018-12-23T11:23:41.384Z,1014.31
2018-12-23T11:24:41.371Z,1014.27
2018-12-23T11:25:41.368Z,1014.23
2018-12-23T11:26:41.360Z,1014.16
2018-12-23T11:27:41.345Z,1014.25
2018-12-23T11:28:41.335Z,1014.24
2018-12-23T11:29:41.332Z,1014.12
2018-12-23T11:30:41.322Z,1014.10
2018-12-23T11:31:41.312Z,1014.11
2018-12-23T11:32:41.305Z,1014.04
2018-12-23T11:33:41.291Z,1014.03
2018-12-23T11:34:41.280Z,1014.00
2018-12-23T11:35:41.273Z,1014.05
2018-12-23T11:36:41.266Z,1013.99
2018-12-23T11:37:41.261Z,1014.06
2018-12-23T11:38:41.252Z,1013.94
2018-12-23T11:39:41.244Z,1013.98
2018-12-23T11:40:41.231Z,1013.91
2018-12-23T11:41:41.222Z,1013.99
2018-12-23T11:42:41.209Z,1013.90
2018-12-23T11:43:41.204Z,1013.90
2018-12-23T11:44:41.198Z,1013.88
2018-12-23T11:45:41.285Z,1013.90
2018-12-23T11:46:41.178Z,1013.88
2018-12-23T11:47:41.164Z,1013.88
2018-12-23T11:48:41.156Z,1013.88
2018-12-23T11:49:41.151Z,1013.83
2018-12-23T11:50:41.141Z,1013.81
2018-12-23T11:51:41.132Z,1013.81
2018-12-23T11:52:41.134Z,1013.77
2018-12-23T11:53:41.109Z,1013.76
2018-12-23T11:54:41.101Z,1013.76
2018-12-23T11:55:41.093Z,1013.76
2018-12-23T11:56:41.082Z,1013.77
2018-12-23T11:57:41.076Z,1013.79
2018-12-23T11:58:41.068Z,1013.70
2018-12-23T11:59:41.057Z,1013.76
2018-12-23T12:00:41.045Z,1013.81
2018-12-23T12:01:41.045Z,1013.73
2018-12-23T12:02:41.031Z,1013.77
2018-12-23T12:03:41.023Z,1013.77
2018-12-23T12:04:41.014Z,1013.77
2018-12-23T12:05:41.000Z,1013.77